Time;durP1;ratioP1;P1;durP2;ratioP2;P2;SDS_P1;SDS_P2;PMS_P1;PMS_P2;Temp;Humidity;BMP_temperature;BMP_pressure;BME280_temperature;BME280_humidity;BME280_pressure;Samples;Min_cycle;Max_cycle;Signal;HPM_P1;HPM_P2
2023/01/19 00:01:23;;;;;;;13.35;10.82;;;1.10;99.90;;;;;;5032549;28;20095;-56
2023/01/19 00:03:49;;;;;;;12.20;10.65;;;1.00;99.90;;;;;;5032858;28;20025;-55
2023/01/19 00:06:15;;;;;;;18.90;11.32;;;1.10;99.90;;;;;;5032809;28;20025;-54
2023/01/19 00:08:43;;;;;;;11.82;10.18;;;1.10;99.90;;;;;;5032421;28;20393;-54
2023/01/19 00:11:09;;;;;;;13.60;12.13;;;1.20;99.90;;;;;;5032514;28;20090;-51
2023/01/19 00:13:35;;;;;;;16.13;11.57;;;1.20;99.90;;;;;;5032295;28;20049;-54
2023/01/19 00:16:01;;;;;;;13.70;11.68;;;1.20;99.90;;;;;;5032298;28;20159;-57
2023/01/19 00:18:27;;;;;;;14.65;10.65;;;1.10;99.90;;;;;;5032547;28;20108;-58
2023/01/19 00:20:52;;;;;;;14.30;11.40;;;1.10;99.90;;;;;;5032288;28;20036;-55
2023/01/19 00:23:19;;;;;;;14.32;10.52;;;1.10;99.90;;;;;;5032211;28;20447;-54
2023/01/19 00:25:46;;;;;;;12.45;11.15;;;1.10;99.90;;;;;;5032028;28;20468;-56
2023/01/19 00:28:15;;;;;;;15.00;12.75;;;1.10;99.90;;;;;;5032248;28;20431;-55
2023/01/19 00:30:41;;;;;;;15.60;11.43;;;1.10;99.90;;;;;;5031801;28;20472;-56
2023/01/19 00:33:07;;;;;;;15.07;11.85;;;1.10;99.90;;;;;;5032059;28;20017;-56
2023/01/19 00:35:34;;;;;;;15.60;11.43;;;1.10;99.90;;;;;;5031878;28;20034;-59
2023/01/19 00:38:01;;;;;;;13.95;11.85;;;1.10;99.90;;;;;;5032181;28;20380;-55
2023/01/19 00:40:26;;;;;;;17.75;11.85;;;1.10;99.90;;;;;;5031738;28;20053;-58
2023/01/19 00:42:53;;;;;;;13.95;10.77;;;1.00;99.90;;;;;;5031942;28;20056;-58
2023/01/19 00:45:20;;;;;;;16.30;11.65;;;1.10;99.90;;;;;;5031784;28;20042;-57
2023/01/19 00:47:53;;;;;;;16.35;12.15;;;1.00;99.90;;;;;;5031316;28;20053;-57
2023/01/19 00:50:19;;;;;;;16.10;12.27;;;1.00;99.90;;;;;;5031705;28;20030;-58
2023/01/19 00:52:45;;;;;;;17.52;12.98;;;1.00;99.90;;;;;;5031626;28;20022;-58
2023/01/19 00:55:13;;;;;;;17.58;12.63;;;0.90;99.90;;;;;;5031917;28;20064;-55
2023/01/19 00:57:39;;;;;;;17.42;14.13;;;0.80;99.90;;;;;;5031688;28;20029;-56
2023/01/19 01:00:10;;;;;;;16.52;12.50;;;0.80;99.90;;;;;;5031893;28;20025;-57
2023/01/19 01:02:36;;;;;;;14.93;12.07;;;0.80;99.90;;;;;;5031546;28;20052;-59
2023/01/19 01:05:02;;;;;;;18.58;11.60;;;0.90;99.90;;;;;;5031761;28;20030;-54
2023/01/19 01:07:29;;;;;;;17.98;13.20;;;0.90;99.90;;;;;;5030523;28;20536;-54
2023/01/19 01:09:57;;;;;;;16.35;12.85;;;0.80;99.90;;;;;;5031588;28;20034;-54
2023/01/19 01:12:23;;;;;;;13.95;11.88;;;0.90;99.90;;;;;;5030191;28;20017;-53
2023/01/19 01:14:49;;;;;;;16.17;13.13;;;1.00;99.90;;;;;;5031515;28;20499;-55
2023/01/19 01:17:14;;;;;;;15.73;13.73;;;0.90;99.90;;;;;;5031400;28;20034;-59
2023/01/19 01:19:40;;;;;;;15.73;13.27;;;0.80;99.90;;;;;;5031285;28;20025;-58
2023/01/19 01:22:07;;;;;;;18.75;13.60;;;0.80;99.90;;;;;;5031296;28;20030;-58
2023/01/19 01:24:33;;;;;;;17.40;13.23;;;0.80;99.90;;;;;;5029772;28;20492;-59
2023/01/19 01:26:59;;;;;;;16.95;12.30;;;0.80;99.90;;;;;;5030909;28;20029;-58
2023/01/19 01:29:25;;;;;;;16.65;12.70;;;0.90;99.90;;;;;;5031407;28;20537;-54
2023/01/19 01:31:51;;;;;;;16.40;13.00;;;0.90;99.90;;;;;;5031076;28;20476;-57
2023/01/19 01:34:17;;;;;;;16.25;13.25;;;0.80;99.90;;;;;;5031472;28;20032;-56
2023/01/19 01:36:43;;;;;;;18.27;13.60;;;0.80;99.90;;;;;;5031234;28;20108;-58
2023/01/19 01:39:08;;;;;;;16.33;12.50;;;0.90;99.90;;;;;;5030911;28;20041;-58
2023/01/19 01:41:34;;;;;;;16.63;12.63;;;1.00;99.90;;;;;;5031343;28;20037;-57
2023/01/19 01:44:01;;;;;;;17.15;13.38;;;1.00;99.90;;;;;;5031195;28;20033;-58
2023/01/19 01:46:29;;;;;;;14.48;11.75;;;0.90;99.90;;;;;;5030962;28;20604;-59
2023/01/19 01:49:11;;;;;;;16.05;13.07;;;0.90;99.90;;;;;;5030808;28;20034;-55
2023/01/19 01:51:42;;;;;;;19.63;14.20;;;0.90;99.90;;;;;;5030759;28;20034;-55
2023/01/19 01:54:17;;;;;;;16.92;13.25;;;0.90;99.90;;;;;;5035089;28;20024;-56
2023/01/19 01:56:48;;;;;;;21.73;14.10;;;1.00;99.90;;;;;;5035075;28;20120;-52
2023/01/19 01:59:28;;;;;;;16.65;12.88;;;1.00;99.90;;;;;;5034705;28;20022;-57
2023/01/19 02:04:52;;;;;;;21.55;13.68;;;0.90;99.90;;;;;;5035005;28;20383;-53
2023/01/19 02:13:18;;;;;;;17.40;13.05;;;0.90;99.90;;;;;;5034888;28;20052;-58
2023/01/19 02:15:44;;;;;;;19.35;13.55;;;0.90;99.90;;;;;;5034639;28;20025;-55
2023/01/19 02:18:10;;;;;;;19.23;14.88;;;0.90;99.90;;;;;;5034685;28;20017;-59
2023/01/19 02:20:39;;;;;;;15.73;13.23;;;0.90;99.90;;;;;;5034496;28;20109;-58
2023/01/19 02:23:14;;;;;;;15.07;12.80;;;0.90;99.90;;;;;;5033136;28;20026;-57
2023/01/19 02:25:40;;;;;;;18.30;14.25;;;0.90;99.90;;;;;;5034020;28;20021;-56
2023/01/19 02:28:06;;;;;;;19.20;13.98;;;0.90;99.90;;;;;;5034468;28;20049;-58
2023/01/19 02:30:33;;;;;;;20.77;13.77;;;0.90;99.90;;;;;;5034263;28;20581;-59
2023/01/19 02:32:58;;;;;;;18.58;13.98;;;0.90;99.90;;;;;;5034126;28;20075;-57
2023/01/19 02:35:25;;;;;;;17.23;14.68;;;0.90;99.90;;;;;;5033016;28;20453;-57
2023/01/19 02:37:52;;;;;;;18.42;14.27;;;0.80;99.90;;;;;;5034342;28;20354;-53
2023/01/19 02:40:20;;;;;;;21.48;15.35;;;0.80;99.90;;;;;;5034383;28;20056;-53
2023/01/19 02:42:51;;;;;;;20.40;15.63;;;0.90;99.90;;;;;;5034186;28;20036;-55
2023/01/19 02:45:20;;;;;;;19.77;15.60;;;0.90;99.90;;;;;;5034288;28;20057;-53
2023/01/19 02:47:48;;;;;;;20.00;15.82;;;0.90;99.90;;;;;;5034334;28;20380;-54
2023/01/19 02:50:51;;;;;;;17.60;13.88;;;0.90;99.90;;;;;;5034225;28;20465;-57
2023/01/19 02:53:23;;;;;;;20.17;15.55;;;0.90;99.90;;;;;;5022580;28;20039;-54
2023/01/19 02:56:13;;;;;;;19.40;14.23;;;0.90;99.90;;;;;;5032176;28;20684;-56
2023/01/19 02:58:41;;;;;;;24.17;15.95;;;0.90;99.90;;;;;;5033880;28;20029;-52
2023/01/19 03:01:40;;;;;;;19.77;14.35;;;0.90;99.90;;;;;;5033328;28;20079;-53
2023/01/19 03:04:50;;;;;;;21.27;16.02;;;0.80;99.90;;;;;;5020242;28;20034;-55
2023/01/19 03:07:53;;;;;;;21.02;15.50;;;0.90;99.90;;;;;;5022605;28;20030;-56
2023/01/19 03:10:41;;;;;;;21.75;17.08;;;0.80;99.90;;;;;;5033771;28;20026;-54
2023/01/19 03:13:30;;;;;;;24.58;17.60;;;0.90;99.90;;;;;;5033809;28;20030;-55
2023/01/19 03:16:04;;;;;;;22.20;15.80;;;0.80;99.90;;;;;;5030120;28;20448;-57
2023/01/19 03:18:32;;;;;;;19.45;14.55;;;0.80;99.90;;;;;;5033636;28;20374;-55
2023/01/19 03:21:04;;;;;;;21.75;16.42;;;0.80;99.90;;;;;;5033640;28;20025;-56
2023/01/19 03:23:31;;;;;;;22.95;16.52;;;0.80;99.90;;;;;;5033464;28;20076;-55
2023/01/19 03:25:59;;;;;;;25.55;17.92;;;0.70;99.90;;;;;;5033227;28;20465;-52
2023/01/19 03:28:28;;;;;;;26.23;17.83;;;0.70;99.90;;;;;;5033338;28;20025;-54
2023/01/19 03:30:59;;;;;;;25.50;18.15;;;0.70;99.90;;;;;;5032911;28;20477;-55
2023/01/19 03:33:37;;;;;;;23.88;18.05;;;0.70;99.90;;;;;;5033233;28;20386;-53
2023/01/19 03:36:11;;;;;;;25.00;17.75;;;0.70;99.90;;;;;;5031780;28;20018;-53
2023/01/19 03:38:40;;;;;;;21.85;17.40;;;0.80;99.90;;;;;;5033197;28;20029;-54
2023/01/19 03:41:10;;;;;;;32.22;22.85;;;0.80;99.90;;;;;;5033254;28;20033;-53
2023/01/19 03:43:37;;;;;;;28.23;19.13;;;0.80;99.90;;;;;;5032892;28;20076;-55
2023/01/19 03:49:34;;;;;;;27.25;19.75;;;0.70;99.90;;;;;;5033546;28;20083;-56
2023/01/19 03:52:00;;;;;;;27.67;19.60;;;0.70;99.90;;;;;;5032905;28;20044;-57
2023/01/19 03:54:27;;;;;;;28.45;18.55;;;0.70;99.90;;;;;;5033126;28;20083;-56
2023/01/19 03:56:52;;;;;;;26.88;20.05;;;0.70;99.90;;;;;;5032877;28;20112;-56
2023/01/19 03:59:20;;;;;;;31.83;21.00;;;0.70;99.90;;;;;;5032855;28;20093;-54
2023/01/19 04:01:46;;;;;;;29.00;21.38;;;0.60;99.90;;;;;;5032975;28;20120;-53
2023/01/19 04:04:14;;;;;;;27.02;20.20;;;0.80;99.90;;;;;;5032890;28;20037;-53
2023/01/19 04:06:39;;;;;;;24.92;19.50;;;0.70;99.90;;;;;;5032463;28;20028;-58
2023/01/19 04:09:05;;;;;;;26.98;20.52;;;0.70;99.90;;;;;;5032796;28;20021;-58
2023/01/19 04:11:31;;;;;;;34.92;22.55;;;0.80;99.90;;;;;;5032487;28;20025;-59
2023/01/19 04:13:56;;;;;;;33.92;22.58;;;0.60;99.90;;;;;;5032273;28;20022;-54
2023/01/19 04:16:22;;;;;;;30.75;20.40;;;0.70;99.90;;;;;;5031657;28;20032;-55
2023/01/19 04:18:48;;;;;;;32.97;21.48;;;0.70;99.90;;;;;;5031125;28;20104;-53
2023/01/19 04:21:14;;;;;;;30.05;21.73;;;0.70;99.90;;;;;;5032514;28;20029;-52
2023/01/19 04:23:40;;;;;;;31.45;20.88;;;0.80;99.90;;;;;;5032381;28;20480;-58
2023/01/19 04:26:07;;;;;;;90.70;41.08;;;0.80;99.90;;;;;;5032246;28;20061;-57
2023/01/19 04:28:35;;;;;;;60.58;30.27;;;0.80;99.90;;;;;;5032487;28;20566;-58
2023/01/19 04:31:01;;;;;;;31.92;23.20;;;0.70;99.90;;;;;;5032324;28;20033;-54
2023/01/19 04:33:28;;;;;;;46.60;27.48;;;0.80;99.90;;;;;;5032374;28;20480;-57
2023/01/19 04:35:54;;;;;;;33.88;23.00;;;0.70;99.90;;;;;;5030818;28;20021;-56
2023/01/19 04:38:21;;;;;;;30.80;22.27;;;0.70;99.90;;;;;;5032159;28;20010;-54
2023/01/19 04:40:48;;;;;;;31.90;22.52;;;0.70;99.90;;;;;;5031924;28;20100;-54
2023/01/19 04:43:14;;;;;;;36.65;22.92;;;0.70;99.90;;;;;;5032162;28;20396;-54
2023/01/19 04:45:40;;;;;;;30.35;22.38;;;0.70;99.90;;;;;;5031666;28;20050;-56
2023/01/19 04:48:05;;;;;;;29.38;21.75;;;0.70;99.90;;;;;;5032044;28;20026;-57
2023/01/19 04:50:32;;;;;;;30.35;21.60;;;0.80;99.90;;;;;;5031887;28;20023;-55
2023/01/19 04:52:58;;;;;;;32.15;22.35;;;0.80;99.90;;;;;;5031798;28;20390;-54
2023/01/19 04:55:24;;;;;;;33.70;22.88;;;0.80;99.90;;;;;;5031851;28;20032;-55
2023/01/19 04:57:50;;;;;;;36.03;23.63;;;0.80;99.90;;;;;;5031678;28;20377;-56
2023/01/19 05:00:16;;;;;;;31.73;21.85;;;0.80;99.90;;;;;;5031881;28;20033;-55
2023/01/19 05:02:44;;;;;;;32.15;21.90;;;0.80;99.90;;;;;;5030292;28;20472;-56
2023/01/19 05:05:09;;;;;;;31.50;21.60;;;0.70;99.90;;;;;;5031806;28;20021;-56
2023/01/19 05:07:35;;;;;;;30.77;21.90;;;0.60;99.90;;;;;;5031671;28;20031;-54
2023/01/19 05:10:00;;;;;;;31.92;21.05;;;0.80;99.90;;;;;;5031632;28;20423;-55
2023/01/19 05:12:26;;;;;;;35.70;22.30;;;0.70;99.90;;;;;;5031704;28;20030;-54
2023/01/19 05:14:52;;;;;;;38.53;23.08;;;0.70;99.90;;;;;;5031634;28;20034;-53
2023/01/19 05:17:17;;;;;;;35.10;22.30;;;0.70;99.90;;;;;;5031275;28;20032;-56
2023/01/19 05:19:43;;;;;;;29.02;21.08;;;0.70;99.90;;;;;;5031282;28;20076;-55
2023/01/19 05:22:09;;;;;;;32.13;19.50;;;0.70;99.90;;;;;;5031352;28;20041;-55
2023/01/19 05:24:34;;;;;;;27.27;18.02;;;0.70;99.90;;;;;;5029882;28;20030;-60
2023/01/19 05:27:00;;;;;;;21.15;17.85;;;0.70;99.90;;;;;;5031884;28;20030;-57
2023/01/19 05:29:26;;;;;;;27.13;17.45;;;0.70;99.90;;;;;;5035311;28;20053;-56
2023/01/19 05:31:52;;;;;;;25.25;16.42;;;0.70;99.90;;;;;;5035149;28;20032;-54
2023/01/19 05:34:18;;;;;;;26.33;17.25;;;0.70;99.90;;;;;;5034069;28;20037;-54
2023/01/19 05:36:43;;;;;;;25.42;18.70;;;0.70;99.90;;;;;;5035311;28;20030;-58
2023/01/19 05:39:09;;;;;;;24.48;18.55;;;0.70;99.90;;;;;;5035496;28;20029;-58
2023/01/19 05:41:35;;;;;;;30.45;19.58;;;0.60;99.90;;;;;;5035442;28;20033;-55
2023/01/19 05:44:00;;;;;;;28.52;19.02;;;0.60;99.90;;;;;;5035181;28;20025;-54
2023/01/19 05:46:26;;;;;;;25.15;18.45;;;0.60;99.90;;;;;;5035125;28;20537;-57
2023/01/19 05:48:52;;;;;;;25.85;18.80;;;0.60;99.90;;;;;;5035102;28;20037;-56
2023/01/19 05:51:17;;;;;;;25.95;18.17;;;0.60;99.90;;;;;;5035227;28;20028;-54
2023/01/19 05:53:43;;;;;;;24.02;15.93;;;0.60;99.90;;;;;;5035075;28;20036;-57
2023/01/19 05:56:09;;;;;;;26.55;16.20;;;0.50;99.90;;;;;;5035161;28;20075;-53
2023/01/19 05:58:38;;;;;;;23.10;14.73;;;0.30;99.90;;;;;;5034942;28;20014;-56
2023/01/19 06:01:09;;;;;;;30.35;17.33;;;0.30;99.90;;;;;;5033782;28;20026;-54
2023/01/19 06:03:35;;;;;;;22.92;15.50;;;0.20;99.90;;;;;;5034804;28;20025;-57
2023/01/19 06:06:02;;;;;;;22.05;14.98;;;0.10;99.90;;;;;;5030859;28;20738;-58
2023/01/19 06:08:28;;;;;;;20.85;14.68;;;0.10;99.90;;;;;;5033686;28;20029;-55
2023/01/19 06:10:54;;;;;;;23.30;14.43;;;0.10;99.90;;;;;;5033998;28;20089;-57
2023/01/19 06:13:20;;;;;;;18.75;13.45;;;0.00;99.90;;;;;;5034667;28;20109;-55
2023/01/19 06:15:46;;;;;;;18.20;13.52;;;0.10;99.90;;;;;;5034189;28;20057;-58
2023/01/19 06:18:13;;;;;;;28.10;14.95;;;0.10;99.90;;;;;;5034059;28;20118;-55
2023/01/19 06:20:39;;;;;;;20.60;13.90;;;0.00;99.90;;;;;;5032662;28;20078;-54
2023/01/19 06:23:05;;;;;;;18.23;13.50;;;0.10;99.90;;;;;;5034363;28;20026;-65
2023/01/19 06:25:31;;;;;;;31.67;16.25;;;0.20;99.90;;;;;;5032403;28;20030;-55
2023/01/19 06:27:56;;;;;;;19.52;13.98;;;0.30;99.90;;;;;;5033894;28;20028;-59
2023/01/19 06:30:22;;;;;;;23.48;14.45;;;0.30;99.90;;;;;;5033677;28;20096;-56
2023/01/19 06:32:47;;;;;;;21.50;14.50;;;0.20;99.90;;;;;;5033826;28;20041;-53
2023/01/19 06:35:14;;;;;;;20.05;13.40;;;0.20;99.90;;;;;;5033660;28;20018;-59
2023/01/19 06:37:39;;;;;;;28.02;14.63;;;0.10;99.90;;;;;;5032160;28;20101;-55
2023/01/19 06:40:06;;;;;;;19.88;13.77;;;0.10;99.90;;;;;;5032445;28;20105;-54
2023/01/19 06:42:31;;;;;;;28.13;16.60;;;0.10;99.90;;;;;;5033777;28;20030;-55
2023/01/19 06:44:57;;;;;;;28.38;14.60;;;0.10;99.90;;;;;;5033805;28;20112;-52
2023/01/19 06:47:23;;;;;;;21.88;14.27;;;0.00;99.90;;;;;;5033786;28;20080;-53
2023/01/19 06:49:48;;;;;;;25.48;14.43;;;0.10;99.90;;;;;;5033788;28;20040;-50
2023/01/19 06:52:16;;;;;;;21.50;13.88;;;0.10;99.90;;;;;;5033596;28;20079;-51
2023/01/19 06:54:45;;;;;;;23.30;13.15;;;0.10;99.90;;;;;;5033693;28;20476;-54
2023/01/19 06:57:11;;;;;;;17.80;12.15;;;0.10;99.90;;;;;;5033432;28;20029;-55
2023/01/19 06:59:37;;;;;;;19.75;12.07;;;-0.10;99.90;;;;;;5032821;28;20028;-55
2023/01/19 07:02:03;;;;;;;19.70;13.73;;;0.00;99.90;;;;;;5033909;28;20017;-57
2023/01/19 07:04:29;;;;;;;19.58;13.82;;;-0.10;99.90;;;;;;5041712;28;20345;-52
2023/01/19 07:06:54;;;;;;;18.98;13.88;;;0.00;99.90;;;;;;5053526;28;20048;-50
2023/01/19 07:09:20;;;;;;;24.17;14.60;;;0.00;99.90;;;;;;5052226;28;20068;-55
2023/01/19 07:11:47;;;;;;;23.67;14.68;;;0.00;99.90;;;;;;5053461;28;20025;-55
2023/01/19 07:14:13;;;;;;;29.63;16.83;;;0.00;99.90;;;;;;5036882;28;20104;-56
2023/01/19 07:16:38;;;;;;;26.52;16.48;;;0.00;99.90;;;;;;5033089;28;20155;-50
2023/01/19 07:19:04;;;;;;;27.70;16.58;;;0.00;99.90;;;;;;5033297;28;20025;-52
2023/01/19 07:21:29;;;;;;;26.17;16.25;;;0.10;99.90;;;;;;5033451;28;20477;-54
2023/01/19 07:23:56;;;;;;;26.23;17.05;;;0.10;99.90;;;;;;5031502;28;20065;-55
2023/01/19 07:26:23;;;;;;;23.15;14.15;;;0.10;99.90;;;;;;5033479;28;20029;-56
2023/01/19 07:28:50;;;;;;;26.33;16.13;;;0.00;99.90;;;;;;5033485;28;20071;-54
2023/01/19 07:31:17;;;;;;;28.60;14.05;;;-0.10;99.90;;;;;;5033351;28;20116;-53
2023/01/19 07:33:42;;;;;;;47.53;22.02;;;-0.10;99.90;;;;;;5031914;28;20025;-53
2023/01/19 07:36:09;;;;;;;46.78;22.90;;;-0.10;99.90;;;;;;5031991;28;20022;-52
2023/01/19 07:38:34;;;;;;;19.52;14.10;;;-0.10;99.90;;;;;;5033273;28;20025;-55
2023/01/19 07:41:05;;;;;;;21.70;14.25;;;0.00;99.90;;;;;;5033436;28;20112;-53
2023/01/19 07:46:52;;;;;;;27.55;14.63;;;0.10;99.90;;;;;;5028672;28;20699;-52
2023/01/19 07:49:19;;;;;;;79.53;38.08;;;0.20;99.90;;;;;;5033817;28;20038;-52
2023/01/19 07:51:45;;;;;;;68.68;29.33;;;0.10;99.90;;;;;;5032576;28;20029;-58
2023/01/19 07:54:11;;;;;;;31.05;18.10;;;0.20;99.90;;;;;;5033312;28;20029;-54
2023/01/19 07:56:37;;;;;;;66.57;27.65;;;0.30;99.90;;;;;;5033055;28;20143;-56
2023/01/19 07:59:02;;;;;;;35.72;16.70;;;0.20;99.90;;;;;;5033249;28;20028;-52
2023/01/19 08:01:28;;;;;;;39.05;19.50;;;0.30;99.90;;;;;;5033231;28;20027;-50
2023/01/19 08:03:54;;;;;;;26.77;15.70;;;0.20;99.90;;;;;;5033113;28;20025;-53
2023/01/19 08:06:22;;;;;;;28.70;17.98;;;0.20;99.90;;;;;;5033164;28;20436;-55
2023/01/19 08:08:48;;;;;;;34.22;18.35;;;0.20;99.90;;;;;;5032796;28;20021;-53
2023/01/19 08:11:14;;;;;;;21.23;14.63;;;0.30;99.90;;;;;;5031158;28;20080;-58
2023/01/19 08:13:39;;;;;;;27.83;18.75;;;0.30;99.90;;;;;;5032514;28;20065;-56
2023/01/19 08:16:05;;;;;;;27.60;16.77;;;0.20;99.90;;;;;;5032662;28;20056;-58
2023/01/19 08:18:31;;;;;;;36.58;19.80;;;0.20;99.90;;;;;;5032627;28;20026;-59
2023/01/19 08:21:00;;;;;;;29.83;16.48;;;0.10;99.90;;;;;;5032236;28;20017;-58
2023/01/19 08:23:26;;;;;;;25.02;17.20;;;0.20;99.90;;;;;;5032322;28;20030;-57
2023/01/19 08:25:53;;;;;;;23.30;16.77;;;0.30;99.90;;;;;;5030977;28;20029;-55
2023/01/19 08:28:19;;;;;;;30.98;20.08;;;0.40;99.90;;;;;;5032756;28;20072;-55
2023/01/19 08:30:52;;;;;;;25.05;17.52;;;0.40;99.90;;;;;;5032127;28;20021;-55
2023/01/19 08:33:19;;;;;;;30.15;19.05;;;0.40;99.90;;;;;;5031025;28;20026;-52
2023/01/19 08:35:47;;;;;;;29.25;18.35;;;0.50;99.90;;;;;;5032105;28;20030;-51
2023/01/19 08:38:14;;;;;;;26.25;17.75;;;0.40;99.90;;;;;;5032007;28;20445;-50
2023/01/19 08:40:40;;;;;;;28.00;18.70;;;0.50;99.90;;;;;;5032058;28;20484;-56
2023/01/19 08:43:12;;;;;;;23.65;17.70;;;0.40;99.90;;;;;;5032238;28;20040;-54
2023/01/19 08:45:46;;;;;;;36.20;20.05;;;0.40;99.90;;;;;;5031905;28;20021;-53
2023/01/19 08:48:13;;;;;;;21.80;15.32;;;0.30;99.90;;;;;;5032018;28;20029;-53
2023/01/19 08:50:39;;;;;;;23.52;17.33;;;0.30;99.90;;;;;;5031837;28;20026;-51
2023/01/19 08:53:05;;;;;;;22.83;16.52;;;0.20;99.90;;;;;;5031914;28;20465;-51
2023/01/19 08:55:33;;;;;;;23.73;16.42;;;0.10;99.90;;;;;;5032003;28;20033;-51
2023/01/19 08:58:00;;;;;;;26.17;18.52;;;0.20;99.90;;;;;;5031695;28;20026;-52
2023/01/19 09:00:26;;;;;;;35.75;19.67;;;0.10;99.90;;;;;;5031879;28;20021;-51
2023/01/19 09:02:52;;;;;;;21.60;16.55;;;0.00;99.90;;;;;;5031119;28;20501;-55
2023/01/19 09:05:18;;;;;;;25.13;15.60;;;0.10;99.90;;;;;;5031740;28;20095;-53
2023/01/19 09:07:46;;;;;;;15.45;12.55;;;0.20;99.90;;;;;;5031635;28;20488;-57
2023/01/19 09:10:13;;;;;;;38.78;20.77;;;0.00;99.90;;;;;;5032071;28;20077;-51
2023/01/19 09:12:39;;;;;;;22.80;14.07;;;0.10;99.90;;;;;;5031352;28;20108;-56
2023/01/19 09:15:05;;;;;;;22.05;13.98;;;0.30;99.90;;;;;;5030371;28;20030;-52
2023/01/19 09:17:31;;;;;;;17.35;11.50;;;0.50;99.90;;;;;;5031667;28;20031;-54
2023/01/19 09:19:57;;;;;;;19.02;12.43;;;0.50;99.90;;;;;;5031460;28;20418;-53
2023/01/19 09:22:23;;;;;;;13.07;11.60;;;0.40;99.90;;;;;;5031596;28;20057;-52
2023/01/19 09:24:49;;;;;;;17.95;11.30;;;0.40;99.90;;;;;;5031398;28;20033;-49
2023/01/19 09:27:14;;;;;;;15.07;12.07;;;0.50;99.90;;;;;;5031401;28;20021;-56
2023/01/19 09:29:40;;;;;;;16.48;12.07;;;0.30;99.90;;;;;;5031862;28;20043;-52
2023/01/19 09:32:05;;;;;;;19.77;13.82;;;0.30;99.90;;;;;;5031380;28;20105;-56
2023/01/19 09:34:31;;;;;;;19.25;10.55;;;0.30;99.90;;;;;;5031687;28;20404;-55
2023/01/19 09:36:57;;;;;;;17.77;12.57;;;0.50;99.90;;;;;;5031252;28;20056;-53
2023/01/19 09:39:22;;;;;;;15.85;12.60;;;0.50;99.90;;;;;;5030748;28;20021;-50
2023/01/19 09:41:55;;;;;;;15.90;12.13;;;0.50;99.90;;;;;;5030358;28;20022;-52
2023/01/19 09:44:33;;;;;;;13.32;10.15;;;0.60;99.90;;;;;;5030523;28;20041;-50
2023/01/19 09:47:02;;;;;;;19.00;11.32;;;0.60;99.90;;;;;;5029598;28;20076;-53
2023/01/19 09:49:35;;;;;;;15.93;11.00;;;0.60;99.90;;;;;;5031456;28;20144;-53
2023/01/19 09:52:01;;;;;;;13.32;10.57;;;0.60;99.90;;;;;;5031214;28;20026;-55
2023/01/19 09:54:39;;;;;;;13.48;9.73;;;0.60;99.90;;;;;;5031402;28;20029;-52
2023/01/19 09:57:10;;;;;;;14.65;11.52;;;0.70;99.90;;;;;;5031385;28;20529;-51
2023/01/19 09:59:37;;;;;;;19.35;13.25;;;0.70;99.90;;;;;;5030995;28;20095;-56
2023/01/19 10:02:12;;;;;;;20.85;12.90;;;0.60;99.90;;;;;;5031266;28;20009;-50
2023/01/19 10:04:41;;;;;;;19.75;12.63;;;0.90;99.90;;;;;;5031449;28;20435;-52
2023/01/19 10:07:33;;;;;;;18.90;12.38;;;0.90;99.90;;;;;;5031628;28;20056;-50
2023/01/19 10:10:21;;;;;;;34.22;21.25;;;0.90;99.90;;;;;;5031069;28;20029;-50
2023/01/19 10:13:19;;;;;;;27.77;18.25;;;0.70;99.90;;;;;;5030006;28;20080;-54
2023/01/19 10:16:08;;;;;;;35.22;21.95;;;0.70;99.90;;;;;;5026004;28;20051;-52
2023/01/19 10:19:16;;;;;;;21.77;15.57;;;0.60;99.90;;;;;;5034899;28;20022;-54
2023/01/19 10:21:43;;;;;;;23.02;15.13;;;0.70;99.90;;;;;;5034612;28;20121;-52
2023/01/19 10:24:29;;;;;;;18.33;14.45;;;0.80;99.90;;;;;;5034772;28;20360;-54
2023/01/19 10:26:56;;;;;;;20.42;15.70;;;0.80;99.90;;;;;;5034564;28;20033;-54
2023/01/19 10:29:33;;;;;;;21.33;15.55;;;0.80;99.90;;;;;;5034333;28;20060;-52
2023/01/19 10:32:21;;;;;;;21.42;16.70;;;0.70;99.90;;;;;;5034370;28;20045;-52
2023/01/19 10:34:49;;;;;;;21.92;16.75;;;0.60;99.90;;;;;;5033092;28;20389;-51
2023/01/19 10:37:26;;;;;;;25.60;18.70;;;0.50;99.90;;;;;;5034564;28;20026;-52
2023/01/19 10:39:57;;;;;;;26.45;18.83;;;0.60;99.90;;;;;;5034120;28;20654;-50
2023/01/19 10:42:22;;;;;;;24.45;18.98;;;0.50;99.90;;;;;;5034418;28;20022;-53
2023/01/19 10:44:49;;;;;;;26.95;18.33;;;0.60;99.90;;;;;;5034162;28;20436;-50
2023/01/19 10:47:17;;;;;;;26.33;17.80;;;0.70;99.90;;;;;;5034043;28;20049;-51
2023/01/19 10:49:43;;;;;;;26.48;19.73;;;0.80;99.90;;;;;;5033995;28;20493;-52
2023/01/19 10:52:24;;;;;;;21.77;17.75;;;0.90;99.90;;;;;;5034339;28;20025;-50
2023/01/19 10:54:50;;;;;;;24.83;18.05;;;0.90;99.90;;;;;;5032864;28;20052;-51
2023/01/19 10:57:37;;;;;;;27.65;18.90;;;0.80;99.90;;;;;;5034412;28;20097;-52
2023/01/19 11:00:27;;;;;;;25.23;17.70;;;0.80;99.90;;;;;;5034160;28;20022;-52
2023/01/19 11:02:53;;;;;;;21.83;16.58;;;0.90;99.90;;;;;;5033705;28;20553;-52
2023/01/19 11:05:24;;;;;;;24.23;17.00;;;1.10;99.90;;;;;;5034309;28;20029;-53
2023/01/19 11:07:50;;;;;;;25.75;17.95;;;1.10;99.90;;;;;;5033753;28;20044;-52
2023/01/19 11:10:22;;;;;;;23.02;15.98;;;1.00;99.90;;;;;;5033962;28;20033;-52
2023/01/19 11:13:01;;;;;;;21.10;15.95;;;0.90;99.90;;;;;;5032283;28;20121;-52
2023/01/19 11:15:43;;;;;;;31.00;17.27;;;1.00;99.90;;;;;;5033841;28;20025;-52
2023/01/19 11:18:39;;;;;;;23.27;16.80;;;1.20;99.90;;;;;;5033658;28;20444;-54
2023/01/19 11:21:16;;;;;;;26.27;17.73;;;1.20;99.90;;;;;;5029249;28;20457;-54
2023/01/19 11:23:41;;;;;;;20.17;15.63;;;1.30;99.90;;;;;;5034001;28;20575;-54
2023/01/19 11:26:14;;;;;;;18.77;14.38;;;1.30;99.90;;;;;;5033463;28;20029;-54
2023/01/19 11:28:46;;;;;;;21.23;16.10;;;1.40;99.90;;;;;;5033463;28;20527;-56
2023/01/19 11:31:14;;;;;;;22.20;15.77;;;1.50;99.90;;;;;;5032235;28;20035;-53
2023/01/19 11:33:41;;;;;;;18.77;14.60;;;1.40;99.90;;;;;;5033279;28;20026;-53
2023/01/19 11:36:22;;;;;;;16.25;13.90;;;1.50;99.90;;;;;;5033428;28;20095;-55
2023/01/19 11:39:10;;;;;;;24.70;15.80;;;1.60;99.90;;;;;;5033359;28;20049;-52
2023/01/19 11:41:38;;;;;;;32.35;16.77;;;1.30;99.90;;;;;;5024389;28;20037;-55
2023/01/19 11:44:13;;;;;;;25.88;15.68;;;1.20;99.90;;;;;;5033684;28;20388;-51
2023/01/19 11:46:43;;;;;;;38.97;19.08;;;1.40;99.90;;;;;;5033561;28;20100;-53
2023/01/19 11:49:35;;;;;;;20.85;15.60;;;1.40;99.90;;;;;;5033334;28;20625;-55
2023/01/19 11:52:13;;;;;;;21.40;15.70;;;1.30;99.90;;;;;;5020153;28;20041;-55
2023/01/19 11:54:54;;;;;;;25.02;17.10;;;1.30;99.90;;;;;;5034241;28;20052;-53
2023/01/19 11:57:20;;;;;;;32.10;17.20;;;1.20;99.90;;;;;;5033519;28;20480;-56
2023/01/19 11:59:47;;;;;;;24.35;17.77;;;1.10;99.90;;;;;;5033771;28;20030;-54
2023/01/19 12:02:27;;;;;;;20.88;16.65;;;1.10;99.90;;;;;;5034793;28;20032;-58
2023/01/19 12:04:59;;;;;;;23.33;15.88;;;1.10;99.90;;;;;;5034421;28;20033;-58
2023/01/19 12:07:29;;;;;;;23.00;15.17;;;1.20;99.90;;;;;;5034359;28;20021;-57
2023/01/19 12:10:11;;;;;;;24.35;15.25;;;1.30;99.90;;;;;;5031966;28;20272;-56
2023/01/19 12:12:39;;;;;;;18.88;14.35;;;1.10;99.90;;;;;;5034104;28;20118;-58
2023/01/19 12:15:07;;;;;;;24.33;15.52;;;1.20;99.90;;;;;;5023036;28;20084;-58
2023/01/19 12:17:36;;;;;;;18.70;15.45;;;1.10;99.90;;;;;;5012813;28;20026;-54
2023/01/19 12:20:26;;;;;;;22.58;15.10;;;1.10;99.90;;;;;;5024065;28;20112;-55
2023/01/19 12:23:06;;;;;;;18.73;13.90;;;1.10;99.90;;;;;;5031852;28;20082;-57
2023/01/19 12:25:46;;;;;;;21.75;14.88;;;1.00;99.90;;;;;;5031276;28;20124;-57
2023/01/19 12:28:14;;;;;;;20.95;15.65;;;0.90;99.90;;;;;;5032274;28;20033;-55
2023/01/19 12:30:40;;;;;;;25.73;15.90;;;0.80;99.90;;;;;;5032363;28;20077;-58
2023/01/19 12:33:24;;;;;;;23.73;17.17;;;0.80;99.90;;;;;;5030120;28;20515;-56
2023/01/19 12:36:26;;;;;;;25.92;17.15;;;0.70;99.90;;;;;;5031772;28;20055;-56
2023/01/19 12:39:02;;;;;;;23.08;13.98;;;0.80;99.90;;;;;;5031978;28;20109;-57
2023/01/19 12:41:32;;;;;;;20.83;13.43;;;0.70;99.90;;;;;;5031685;28;20025;-57
2023/01/19 12:44:10;;;;;;;22.10;15.77;;;0.70;99.90;;;;;;5029641;28;20390;-54
2023/01/19 12:46:39;;;;;;;17.15;12.63;;;0.80;99.90;;;;;;5031386;28;20457;-55
2023/01/19 12:49:19;;;;;;;18.00;13.68;;;0.90;99.90;;;;;;5031006;28;20495;-59
2023/01/19 12:51:45;;;;;;;19.08;13.05;;;0.90;99.90;;;;;;5031887;28;20033;-54
2023/01/19 12:54:30;;;;;;;30.05;16.67;;;0.80;99.90;;;;;;5032132;28;20026;-58
2023/01/19 12:57:05;;;;;;;17.08;12.77;;;0.90;99.90;;;;;;5031709;28;20040;-57
2023/01/19 12:59:35;;;;;;;19.67;14.20;;;1.00;99.90;;;;;;5031752;28;20097;-58
2023/01/19 13:02:19;;;;;;;17.63;13.35;;;0.90;99.90;;;;;;5031531;28;20424;-56
2023/01/19 13:05:16;;;;;;;18.83;13.18;;;0.80;99.90;;;;;;5032328;28;20021;-57